Time;durP1;ratioP1;P1;durP2;ratioP2;P2;SDS_P1;SDS_P2;PMS_P1;PMS_P2;Temp;Humidity;BMP_temperature;BMP_pressure;BME280_temperature;BME280_humidity;BME280_pressure;Samples;Min_cycle;Max_cycle;Signal;HPM_P1;HPM_P2
2021/05/25 00:00:15;;;;;;;2.88;2.00;;;;;;;21.01;56.39;100486.84;5082411;28;20370;-72
2021/05/25 00:02:42;;;;;;;3.67;2.40;;;;;;;20.96;56.43;100473.19;5082227;28;20238;-72
2021/05/25 00:05:10;;;;;;;4.40;1.80;;;;;;;21.06;56.32;100483.50;5083087;28;20074;-72
2021/05/25 00:07:35;;;;;;;7.20;2.28;;;;;;;21.06;56.28;100483.50;5085660;28;20044;-72
2021/05/25 00:10:02;;;;;;;4.18;1.92;;;;;;;20.88;56.65;100468.03;5070218;28;20047;-72
2021/05/25 00:12:27;;;;;;;4.88;2.00;;;;;;;20.91;56.70;100480.25;5084188;28;20140;-72
2021/05/25 00:14:53;;;;;;;4.22;2.00;;;;;;;20.90;56.73;100475.91;5083009;28;20036;-72
2021/05/25 00:17:18;;;;;;;7.72;2.22;;;;;;;20.80;57.04;100470.94;5081639;28;20020;-72
2021/05/25 00:19:44;;;;;;;6.22;2.38;;;;;;;20.71;57.47;100464.13;5081704;28;20043;-72
2021/05/25 00:22:11;;;;;;;2.70;2.05;;;;;;;20.64;57.61;100472.19;5085691;28;20036;-72
2021/05/25 00:24:37;;;;;;;5.45;2.08;;;;;;;20.69;57.67;100477.78;5082240;28;20037;-72
2021/05/25 00:27:02;;;;;;;9.05;2.55;;;;;;;20.65;57.81;100471.16;5083295;28;20040;-71
2021/05/25 00:29:28;;;;;;;4.00;2.15;;;;;;;20.71;57.50;100470.31;5082681;28;20056;-72
2021/05/25 00:31:53;;;;;;;5.10;2.42;;;;;;;20.68;57.69;100470.75;5081818;28;20033;-72
2021/05/25 00:34:19;;;;;;;6.00;2.13;;;;;;;20.66;58.01;100461.22;5082685;28;20044;-72
2021/05/25 00:36:44;;;;;;;3.25;1.70;;;;;;;20.64;58.15;100474.06;5081948;28;20025;-72
2021/05/25 00:39:10;;;;;;;6.53;1.90;;;;;;;20.61;58.13;100461.84;5083055;28;20033;-72
2021/05/25 00:41:36;;;;;;;5.63;2.22;;;;;;;20.66;58.04;100467.44;5083003;28;20319;-72
2021/05/25 00:44:04;;;;;;;2.33;1.60;;;;;;;20.55;58.28;100451.09;5082455;28;20087;-72
2021/05/25 00:46:30;;;;;;;7.40;2.13;;;;;;;20.54;58.42;100462.91;5083280;28;20034;-72
2021/05/25 00:48:55;;;;;;;6.18;2.08;;;;;;;20.50;58.94;100464.34;5083116;28;20028;-72
2021/05/25 00:51:21;;;;;;;3.47;2.08;;;;;;;20.42;59.11;100460.03;5082041;28;20237;-72
2021/05/25 00:53:46;;;;;;;3.50;2.00;;;;;;;20.38;59.14;100458.75;5085162;28;20206;-72
2021/05/25 00:56:12;;;;;;;4.70;2.58;;;;;;;20.38;59.20;100458.75;5082482;28;20042;-72
2021/05/25 00:58:38;;;;;;;5.43;2.10;;;;;;;20.46;58.82;100466.66;5081786;28;20043;-72
2021/05/25 01:01:04;;;;;;;8.02;1.90;;;;;;;20.32;59.28;100465.78;5081713;28;20095;-72
2021/05/25 01:03:30;;;;;;;5.88;2.15;;;;;;;20.24;59.58;100457.94;5085803;28;20040;-72
2021/05/25 01:05:55;;;;;;;3.63;1.85;;;;;;;20.23;59.82;100467.03;5080359;28;20047;-72
2021/05/25 01:08:22;;;;;;;4.70;2.25;;;;;;;20.20;59.79;100450.50;5081400;28;20035;-72
2021/05/25 01:13:58;;;;;;;4.32;2.30;;;;;;;20.05;60.55;100456.09;5088418;28;20321;-72
2021/05/25 01:16:26;;;;;;;5.65;2.10;;;;;;;20.04;60.57;100451.75;5077348;28;20170;-72
2021/05/25 01:18:52;;;;;;;4.78;2.20;;;;;;;20.00;60.89;100448.63;5081605;28;20055;-72
2021/05/25 01:21:18;;;;;;;4.70;2.20;;;;;;;19.96;60.78;100447.41;5081048;28;20036;-72
2021/05/25 01:23:44;;;;;;;3.53;2.15;;;;;;;19.94;60.82;100448.63;5080965;28;20051;-72
2021/05/25 01:26:10;;;;;;;5.95;2.33;;;;;;;19.84;61.09;100448.22;5082212;28;20315;-72
2021/05/25 01:28:36;;;;;;;2.67;2.03;;;;;;;19.76;61.38;100452.72;5080789;28;20055;-72
2021/05/25 01:31:04;;;;;;;10.95;2.60;;;;;;;19.70;61.75;100445.47;5081572;28;20092;-72
2021/05/25 01:33:32;;;;;;;3.33;2.28;;;;;;;19.48;62.65;100437.75;5079934;28;20063;-72
2021/05/25 01:35:58;;;;;;;4.22;2.30;;;;;;;19.34;63.04;100437.72;5084411;28;20047;-72
2021/05/25 01:38:25;;;;;;;8.65;2.78;;;;;;;19.23;63.48;100438.31;5081698;28;20074;-72
2021/05/25 01:40:55;;;;;;;6.72;2.97;;;;;;;19.02;64.32;100427.69;5080875;28;20032;-72
2021/05/25 01:43:21;;;;;;;5.32;2.65;;;;;;;19.18;64.09;100429.19;5081689;28;20024;-72
2021/05/25 01:45:46;;;;;;;7.30;2.40;;;;;;;19.24;63.57;100431.91;5082567;28;20260;-72
2021/05/25 01:48:12;;;;;;;5.85;3.00;;;;;;;19.21;63.77;100431.47;5082633;28;20040;-72
2021/05/25 01:50:40;;;;;;;4.53;2.65;;;;;;;19.20;64.07;100435.19;5082131;28;20028;-72
2021/05/25 01:53:08;;;;;;;5.15;2.28;;;;;;;19.30;63.93;100435.66;5082772;28;20044;-72
2021/05/25 01:55:38;;;;;;;3.22;2.33;;;;;;;19.41;63.28;100435.88;5081289;28;20024;-72
2021/05/25 01:58:14;;;;;;;7.53;2.03;;;;;;;19.54;62.80;100436.97;5081136;28;20037;-72
2021/05/25 02:00:44;;;;;;;3.45;2.30;;;;;;;19.66;62.21;100433.47;5083875;28;20348;-72
2021/05/25 02:03:10;;;;;;;4.00;2.45;;;;;;;19.68;61.99;100431.41;5077836;28;20093;-72
2021/05/25 02:05:36;;;;;;;4.32;2.40;;;;;;;19.66;62.12;100430.78;5081237;28;20226;-72
2021/05/25 02:08:03;;;;;;;6.45;2.60;;;;;;;19.62;62.41;100434.09;5079617;28;20032;-72
2021/05/25 02:10:36;;;;;;;5.95;2.42;;;;;;;19.71;62.09;100435.56;5079865;28;20025;-72
2021/05/25 02:13:06;;;;;;;6.68;3.13;;;;;;;19.72;62.05;100438.03;5081045;28;20032;-72
2021/05/25 02:15:33;;;;;;;2.97;2.20;;;;;;;19.74;62.15;100432.47;5080949;28;20028;-72
2021/05/25 02:18:16;;;;;;;3.88;2.30;;;;;;;19.72;61.91;100439.91;5080383;28;20107;-72
2021/05/25 02:20:48;;;;;;;6.15;2.67;;;;;;;19.74;61.85;100437.84;5081143;28;20067;-72
2021/05/25 02:23:14;;;;;;;4.55;2.75;;;;;;;19.76;61.71;100436.59;5081143;28;20044;-72
2021/05/25 02:25:39;;;;;;;5.55;2.45;;;;;;;19.83;61.15;100441.19;5080328;28;20200;-72
2021/05/25 02:28:06;;;;;;;5.88;2.63;;;;;;;19.67;61.64;100437.81;5084183;28;20077;-72
2021/05/25 02:30:32;;;;;;;10.85;3.15;;;;;;;19.51;62.37;100438.19;5080622;28;20107;-72
2021/05/25 02:32:59;;;;;;;4.13;2.70;;;;;;;19.51;62.52;100438.19;5080088;28;20048;-72
2021/05/25 02:35:25;;;;;;;3.38;2.53;;;;;;;19.60;62.21;100441.53;5076448;28;20052;-72
2021/05/25 02:37:51;;;;;;;6.95;2.40;;;;;;;19.63;62.15;100444.63;5080986;28;20352;-72
2021/05/25 02:40:17;;;;;;;4.57;3.00;;;;;;;19.64;61.96;100427.50;5084012;28;20024;-71
2021/05/25 02:42:43;;;;;;;9.32;3.05;;;;;;;19.64;61.70;100427.50;5080752;28;20283;-72
2021/05/25 02:45:10;;;;;;;5.78;2.67;;;;;;;19.51;62.27;100422.06;5079751;28;20048;-72
2021/05/25 02:47:36;;;;;;;3.70;2.72;;;;;;;19.39;62.60;100416.47;5083369;28;20020;-72
2021/05/25 02:50:09;;;;;;;7.22;2.70;;;;;;;19.34;62.69;100421.59;5082725;28;20211;-72
2021/05/25 02:52:37;;;;;;;6.07;2.75;;;;;;;19.27;63.12;100422.63;5087362;28;20111;-72
2021/05/25 03:12:35;;;;;;;4.95;2.83;;;;;;;19.78;61.79;100452.53;5161079;27;20664;-71
2021/05/25 03:15:01;;;;;;;5.53;2.83;;;;;;;19.86;61.63;100459.59;5145973;27;20076;-71
2021/05/25 03:17:27;;;;;;;4.68;2.50;;;;;;;19.91;61.51;100460.63;5140140;27;20279;-71
2021/05/25 03:19:53;;;;;;;5.97;2.90;;;;;;;19.99;61.26;100467.66;5148036;27;20027;-71
2021/05/25 03:22:19;;;;;;;5.85;3.03;;;;;;;19.94;61.29;100462.06;5148075;27;20059;-71
2021/05/25 03:24:45;;;;;;;10.13;3.20;;;;;;;20.00;61.11;100464.75;5152593;27;20035;-71
2021/05/25 03:27:10;;;;;;;4.78;2.75;;;;;;;19.97;61.05;100472.41;5143362;27;20046;-71
2021/05/25 03:29:36;;;;;;;5.75;2.88;;;;;;;20.05;61.19;100477.59;5147071;27;20035;-71
2021/05/25 03:32:01;;;;;;;4.82;2.85;;;;;;;20.04;61.05;100467.88;5147906;27;20034;-71
2021/05/25 03:34:27;;;;;;;11.02;3.35;;;;;;;20.17;60.16;100472.44;5144174;27;20061;-71
2021/05/25 03:36:52;;;;;;;6.05;2.90;;;;;;;19.98;60.99;100471.38;5153197;27;20026;-71
2021/05/25 03:39:18;;;;;;;6.88;2.78;;;;;;;19.89;61.65;100467.25;5149624;27;20031;-71
2021/05/25 03:41:44;;;;;;;5.13;3.10;;;;;;;19.97;61.43;100464.34;5145892;27;20062;-71
2021/05/25 03:44:15;;;;;;;5.13;2.92;;;;;;;20.10;61.03;100469.72;5146224;27;20030;-71
2021/05/25 03:46:41;;;;;;;6.03;3.03;;;;;;;19.96;61.79;100458.16;5133036;27;20042;-71
2021/05/25 03:49:07;;;;;;;7.63;3.47;;;;;;;19.82;62.15;100456.47;5127252;27;20039;-71
2021/05/25 03:51:32;;;;;;;8.18;3.10;;;;;;;19.76;62.41;100463.47;5130694;27;20070;-71
2021/05/25 03:53:58;;;;;;;4.03;2.90;;;;;;;19.73;62.63;100455.00;5127898;27;20048;-70
2021/05/25 03:56:34;;;;;;;5.72;3.20;;;;;;;19.74;62.81;100459.31;5112308;27;20291;-71
2021/05/25 03:58:59;;;;;;;7.60;3.10;;;;;;;19.86;62.98;100449.66;5135240;27;20042;-71
2021/05/25 04:01:27;;;;;;;5.15;2.85;;;;;;;19.98;62.38;100452.56;5134492;27;20031;-71
2021/05/25 04:03:55;;;;;;;8.00;2.97;;;;;;;19.95;62.29;100456.50;5130843;27;20065;-71
2021/05/25 04:06:22;;;;;;;6.55;3.17;;;;;;;19.91;62.33;100457.94;5129353;27;20031;-71
2021/05/25 04:08:49;;;;;;;4.38;2.60;;;;;;;20.06;61.98;100463.94;5127452;27;20019;-71
2021/05/25 04:11:15;;;;;;;3.85;2.85;;;;;;;20.19;61.66;100465.81;5122225;27;20107;-71
2021/05/25 04:13:41;;;;;;;8.20;3.08;;;;;;;20.13;61.96;100466.63;5100154;27;20039;-71
2021/05/25 04:16:12;;;;;;;4.43;2.67;;;;;;;20.19;62.00;100467.66;5122387;27;20372;-71
2021/05/25 04:18:38;;;;;;;9.63;2.90;;;;;;;20.35;61.81;100475.31;5124072;28;20073;-71
2021/05/25 04:21:04;;;;;;;5.10;2.80;;;;;;;20.59;60.92;100480.06;5118562;28;20092;-71
2021/05/25 04:23:30;;;;;;;9.68;3.05;;;;;;;20.91;59.69;100473.00;5113294;27;20213;-71
2021/05/25 04:25:55;;;;;;;3.33;2.47;;;;;;;21.18;58.73;100471.03;5112676;27;20043;-71
2021/05/25 04:28:21;;;;;;;7.07;3.08;;;;;;;21.35;58.48;100471.41;5117018;27;20077;-71
2021/05/25 04:30:47;;;;;;;4.68;2.92;;;;;;;21.23;58.83;100481.19;5114241;27;20044;-71
2021/05/25 04:33:12;;;;;;;7.55;3.17;;;;;;;21.30;58.80;100482.00;5113679;27;20329;-71
2021/05/25 04:35:38;;;;;;;7.05;2.78;;;;;;;21.25;59.32;100481.81;5111098;27;20036;-71
2021/05/25 04:38:04;;;;;;;2.67;2.30;;;;;;;21.03;60.50;100481.25;5098752;28;20058;-71
2021/05/25 04:40:30;;;;;;;6.38;2.70;;;;;;;20.93;59.94;100480.84;5113289;27;20024;-71
2021/05/25 04:42:56;;;;;;;6.10;2.22;;;;;;;21.04;59.07;100472.94;5115862;27;20063;-71
2021/05/25 04:45:22;;;;;;;5.72;2.47;;;;;;;20.94;59.83;100485.19;5110920;27;20673;-71
2021/05/25 04:47:48;;;;;;;7.03;2.38;;;;;;;20.77;60.12;100476.72;5118507;27;20028;-71
2021/05/25 04:50:14;;;;;;;5.95;2.30;;;;;;;20.85;59.78;100473.00;5117620;27;20063;-71
2021/05/25 04:52:40;;;;;;;3.85;2.05;;;;;;;20.83;59.88;100462.47;5091783;28;20103;-71
2021/05/25 04:55:09;;;;;;;4.65;2.42;;;;;;;20.84;60.17;100472.19;5117770;27;20209;-71
2021/05/25 04:57:35;;;;;;;2.67;2.10;;;;;;;21.21;58.34;100477.84;5099432;28;20098;-72
2021/05/25 05:00:01;;;;;;;4.43;1.65;;;;;;;21.06;58.08;100478.13;5109077;28;20108;-71
2021/05/25 05:02:26;;;;;;;4.45;2.10;;;;;;;20.73;59.10;100467.41;5106882;27;20324;-71
2021/05/25 05:04:52;;;;;;;4.03;2.03;;;;;;;20.55;60.66;100470.75;5114869;27;20240;-71
2021/05/25 05:07:17;;;;;;;3.83;2.42;;;;;;;21.07;59.11;100474.38;5112758;27;20335;-71
2021/05/25 05:09:43;;;;;;;9.15;2.17;;;;;;;20.61;59.61;100461.03;5119077;27;20023;-71
2021/05/25 05:12:08;;;;;;;4.68;2.33;;;;;;;20.67;59.99;100479.03;5108377;28;20228;-71
2021/05/25 05:14:34;;;;;;;5.75;1.73;;;;;;;21.05;58.43;100465.69;5115585;27;20020;-71
2021/05/25 05:16:59;;;;;;;3.13;1.88;;;;;;;21.23;57.64;100479.31;5107944;27;20042;-72
2021/05/25 05:19:25;;;;;;;5.50;1.88;;;;;;;21.46;57.41;100475.28;5092578;28;20016;-72
2021/05/25 05:21:50;;;;;;;2.20;2.00;;;;;;;21.77;56.42;100477.16;5112111;27;20028;-72
2021/05/25 05:24:16;;;;;;;3.00;1.63;;;;;;;22.29;55.00;100484.09;5111245;28;20270;-72
2021/05/25 05:26:42;;;;;;;2.75;1.75;;;;;;;21.89;54.23;100486.25;5114509;27;20234;-72
2021/05/25 05:29:07;;;;;;;4.35;1.73;;;;;;;21.44;56.26;100482.75;5112895;27;20271;-71
2021/05/25 05:31:32;;;;;;;3.63;1.75;;;;;;;21.54;55.44;100473.16;5110847;28;20031;-72
2021/05/25 05:33:58;;;;;;;3.60;1.80;;;;;;;21.34;56.35;100473.28;5107092;28;20317;-72
2021/05/25 05:36:23;;;;;;;4.75;1.83;;;;;;;21.35;57.40;100461.44;5096061;28;20038;-72
2021/05/25 05:38:49;;;;;;;4.93;2.00;;;;;;;21.27;56.73;100461.69;5113979;27;20024;-72
2021/05/25 05:41:14;;;;;;;3.83;1.90;;;;;;;21.45;56.76;100463.69;5108248;28;20028;-72
2021/05/25 05:43:41;;;;;;;3.17;1.60;;;;;;;21.52;55.97;100467.16;5098946;28;20028;-72
2021/05/25 05:46:06;;;;;;;3.90;2.13;;;;;;;22.05;54.91;100471.44;5117426;27;20066;-72
2021/05/25 05:48:32;;;;;;;3.42;1.90;;;;;;;22.32;53.92;100480.13;5122795;28;20102;-72
2021/05/25 05:50:57;;;;;;;3.83;1.70;;;;;;;21.89;54.27;100475.47;5121298;27;22290;-71
2021/05/25 05:53:23;;;;;;;4.47;1.83;;;;;;;22.27;54.41;100476.22;5114672;27;20039;-72
2021/05/25 05:55:49;;;;;;;4.68;1.85;;;;;;;22.25;54.30;100472.09;5115406;27;20067;-72
2021/05/25 05:58:15;;;;;;;4.00;1.80;;;;;;;22.71;51.98;100484.34;5113500;28;20042;-72
2021/05/25 06:00:41;;;;;;;2.03;1.75;;;;;;;22.90;52.62;100481.47;5117944;27;20031;-71
2021/05/25 06:03:08;;;;;;;3.70;1.58;;;;;;;23.35;49.83;100481.16;5126366;27;20082;-71
2021/05/25 06:05:35;;;;;;;4.45;2.20;;;;;;;22.81;51.22;100485.50;5113006;27;20034;-72
2021/05/25 06:08:02;;;;;;;3.75;2.40;;;;;;;22.44;51.42;100492.69;5090963;28;20205;-72
2021/05/25 06:10:30;;;;;;;7.53;1.80;;;;;;;22.36;51.98;100481.34;5112931;27;20176;-72
2021/05/25 06:12:56;;;;;;;4.78;1.70;;;;;;;21.95;53.84;100475.41;5112477;27;20066;-72
2021/05/25 06:15:21;;;;;;;2.95;1.55;;;;;;;21.92;53.65;100492.03;5087165;28;20027;-72
2021/05/25 06:17:47;;;;;;;4.40;1.77;;;;;;;22.28;53.87;100490.53;5110111;28;20043;-72
2021/05/25 06:20:13;;;;;;;5.78;1.77;;;;;;;22.27;52.80;100486.19;5117291;27;20042;-72
2021/05/25 06:22:39;;;;;;;2.75;1.60;;;;;;;22.67;52.13;100486.66;5107615;28;20208;-72
2021/05/25 06:25:06;;;;;;;4.80;1.70;;;;;;;23.00;51.75;100480.13;5098636;28;20032;-72
2021/05/25 06:27:32;;;;;;;2.55;1.63;;;;;;;23.16;50.67;100479.53;5100480;28;20035;-70
2021/05/25 06:29:57;;;;;;;2.63;1.77;;;;;;;23.64;49.34;100481.41;5114597;27;20048;-71
2021/05/25 06:32:23;;;;;;;4.60;1.90;;;;;;;24.14;47.82;100474.63;5114757;28;20022;-72
2021/05/25 06:34:51;;;;;;;4.07;1.98;;;;;;;24.17;48.17;100468.75;5108820;28;20039;-72
2021/05/25 06:37:16;;;;;;;3.85;1.42;;;;;;;24.37;46.71;100473.84;5112561;27;20042;-72
2021/05/25 06:39:41;;;;;;;10.25;2.10;;;;;;;24.49;46.78;100471.97;5114808;27;20024;-72
2021/05/25 06:42:08;;;;;;;3.53;1.65;;;;;;;24.96;44.85;100465.69;5108198;28;20038;-72
2021/05/25 06:44:33;;;;;;;3.58;1.85;;;;;;;25.24;44.18;100454.94;5098894;28;20092;-71
2021/05/25 06:47:00;;;;;;;3.90;1.70;;;;;;;25.09;44.84;100458.16;5111867;27;20056;-71
2021/05/25 06:49:25;;;;;;;6.65;1.90;;;;;;;25.03;45.54;100458.31;5114120;27;20239;-72
2021/05/25 06:51:51;;;;;;;5.88;1.52;;;;;;;25.09;46.02;100457.34;5122219;28;20028;-72
2021/05/25 06:54:16;;;;;;;3.70;1.83;;;;;;;25.13;45.11;100459.34;5121383;28;20027;-71
2021/05/25 06:56:41;;;;;;;2.75;1.52;;;;;;;25.20;45.02;100458.38;5110363;28;20031;-71
2021/05/25 06:59:07;;;;;;;7.40;2.20;;;;;;;25.87;43.91;100456.69;5117963;28;20030;-70
2021/05/25 07:01:32;;;;;;;3.22;1.67;;;;;;;26.05;42.42;100453.75;5112854;28;20028;-72
2021/05/25 07:03:58;;;;;;;3.67;1.80;;;;;;;25.68;43.97;100453.38;5112858;28;20145;-70
2021/05/25 07:06:25;;;;;;;4.53;1.75;;;;;;;25.54;43.49;100456.59;5118934;28;20027;-70
2021/05/25 07:08:50;;;;;;;4.15;1.70;;;;;;;26.15;42.03;100447.66;5111038;28;20028;-70
2021/05/25 07:11:16;;;;;;;5.82;1.77;;;;;;;26.47;40.44;100447.09;5118489;28;20043;-70
2021/05/25 07:13:41;;;;;;;5.13;1.60;;;;;;;26.71;40.26;100433.03;5105663;28;20022;-71
2021/05/25 07:16:07;;;;;;;4.72;1.75;;;;;;;26.51;40.64;100445.53;5112560;28;20032;-70
2021/05/25 07:18:32;;;;;;;7.53;1.98;;;;;;;26.29;42.15;100435.41;5097315;28;20019;-71
2021/05/25 07:20:58;;;;;;;4.22;1.63;;;;;;;26.51;41.22;100427.34;5122268;28;20316;-70
2021/05/25 07:23:23;;;;;;;10.48;2.13;;;;;;;26.18;42.17;100435.50;5131100;28;20321;-70
2021/05/25 07:25:49;;;;;;;6.00;1.73;;;;;;;26.38;41.94;100433.94;5109298;28;20042;-69
2021/05/25 07:28:15;;;;;;;3.70;1.70;;;;;;;26.58;41.55;100429.88;5129864;28;20098;-70
2021/05/25 07:30:41;;;;;;;4.07;1.75;;;;;;;26.53;41.21;100424.38;5130195;28;20030;-70
2021/05/25 07:33:07;;;;;;;5.57;2.00;;;;;;;26.16;41.36;100434.91;5130154;28;20032;-71
2021/05/25 07:35:32;;;;;;;3.47;1.67;;;;;;;25.34;43.21;100422.63;5131483;28;20068;-71
2021/05/25 07:37:58;;;;;;;6.43;1.80;;;;;;;25.62;42.43;100421.75;5130681;28;20031;-72
2021/05/25 07:40:23;;;;;;;2.97;1.73;;;;;;;25.76;42.16;100414.16;5125580;28;20034;-72
2021/05/25 07:42:49;;;;;;;8.50;1.95;;;;;;;26.30;41.19;100420.75;5107568;28;20016;-70
2021/05/25 07:45:15;;;;;;;4.22;1.92;;;;;;;26.48;42.15;100416.97;5117962;28;20065;-70
2021/05/25 07:47:42;;;;;;;3.45;1.92;;;;;;;26.69;41.12;100399.06;5121547;28;20032;-70
2021/05/25 07:50:14;;;;;;;5.20;1.92;;;;;;;27.25;40.03;100410.63;5106237;28;20337;-70
2021/05/25 07:52:45;;;;;;;3.65;1.90;;;;;;;26.75;40.13;100405.38;5124400;27;20019;-71
2021/05/25 07:55:11;;;;;;;2.72;1.70;;;;;;;26.09;41.87;100408.78;5125795;27;20111;-70
2021/05/25 07:57:37;;;;;;;4.35;1.85;;;;;;;26.49;41.18;100407.75;5126445;27;20028;-70
2021/05/25 08:00:05;;;;;;;5.13;2.25;;;;;;;26.47;41.41;100407.19;5125650;27;20038;-70
2021/05/25 08:02:30;;;;;;;5.82;2.03;;;;;;;26.68;40.97;100408.28;5126971;27;20347;-70
2021/05/25 08:04:56;;;;;;;10.02;2.30;;;;;;;26.60;41.55;100393.22;5125664;27;20040;-70
2021/05/25 08:07:21;;;;;;;3.33;2.22;;;;;;;26.20;42.67;100409.75;5126431;27;20027;-70
2021/05/25 08:09:47;;;;;;;7.55;2.50;;;;;;;26.35;42.69;100404.56;5126465;27;20079;-70
2021/05/25 08:12:12;;;;;;;6.85;2.22;;;;;;;25.68;43.71;100401.84;5123083;27;20538;-70
2021/05/25 08:14:38;;;;;;;3.85;2.08;;;;;;;25.63;45.17;100403.59;5106319;28;20346;-70
2021/05/25 08:17:17;;;;;;;8.65;2.20;;;;;;;26.24;42.44;100410.06;5106640;28;20016;-70
2021/05/25 08:19:44;;;;;;;4.53;2.25;;;;;;;26.31;41.78;100406.09;5123801;28;20259;-70
2021/05/25 08:22:09;;;;;;;7.03;2.30;;;;;;;26.64;41.32;100402.53;5123142;28;20043;-69
2021/05/25 08:24:35;;;;;;;6.03;1.88;;;;;;;26.29;42.13;100399.28;5124655;28;20062;-69
2021/05/25 08:27:00;;;;;;;6.28;2.28;;;;;;;26.08;43.70;100398.97;5122190;27;20343;-71
2021/05/25 08:29:26;;;;;;;3.80;2.03;;;;;;;26.59;41.93;100391.59;5131722;27;20042;-71
2021/05/25 08:31:51;;;;;;;2.17;1.80;;;;;;;26.49;41.48;100402.31;5117342;27;20282;-70
2021/05/25 08:34:17;;;;;;;3.70;1.90;;;;;;;26.80;40.24;100397.28;5106326;28;20348;-70
2021/05/25 08:36:42;;;;;;;3.92;2.22;;;;;;;26.98;39.28;100377.97;5125489;28;20039;-70
2021/05/25 08:39:07;;;;;;;4.60;1.80;;;;;;;27.04;39.97;100390.53;5125101;28;20038;-70
2021/05/25 08:41:34;;;;;;;3.92;1.80;;;;;;;26.57;40.12;100390.19;5117894;28;20044;-69
2021/05/25 08:44:01;;;;;;;7.50;2.22;;;;;;;27.20;39.32;100383.41;5113492;28;20347;-70
2021/05/25 08:46:26;;;;;;;4.35;2.15;;;;;;;26.82;41.08;100378.84;5125224;28;20036;-70
2021/05/25 08:48:52;;;;;;;5.55;1.98;;;;;;;26.66;41.06;100384.06;5106339;28;20361;-70
2021/05/25 08:51:18;;;;;;;7.50;2.05;;;;;;;26.99;40.57;100375.00;5124854;28;20059;-70
2021/05/25 08:53:43;;;;;;;3.72;2.03;;;;;;;26.88;41.69;100369.66;5124643;28;20223;-70
2021/05/25 08:56:09;;;;;;;3.55;1.90;;;;;;;27.25;40.06;100372.56;5106374;28;20039;-70
2021/05/25 08:58:34;;;;;;;4.72;2.05;;;;;;;27.83;39.65;100362.78;5124480;28;20037;-70
2021/05/25 09:01:00;;;;;;;7.10;1.90;;;;;;;28.39;38.08;100366.75;5124603;28;20100;-70
2021/05/25 09:03:26;;;;;;;3.22;1.90;;;;;;;27.53;39.81;100361.41;5124356;28;20019;-70
2021/05/25 09:06:06;;;;;;;6.50;2.10;;;;;;;27.00;41.52;100354.88;5123612;28;20302;-70
2021/05/25 09:08:32;;;;;;;6.53;2.00;;;;;;;27.35;40.37;100359.06;5124370;28;20031;-70
2021/05/25 09:11:05;;;;;;;4.93;2.13;;;;;;;27.99;40.04;100348.19;5123990;28;20065;-70
2021/05/25 09:13:31;;;;;;;3.63;1.87;;;;;;;28.45;39.18;100343.06;5124536;28;20070;-70
2021/05/25 09:15:58;;;;;;;4.60;2.17;;;;;;;27.63;39.53;100350.66;5106029;28;20102;-70
2021/05/25 09:18:27;;;;;;;2.65;2.20;;;;;;;26.98;41.86;100343.47;5124167;28;20034;-70
2021/05/25 09:21:05;;;;;;;5.75;2.03;;;;;;;27.23;41.81;100337.50;5124275;28;20062;-70
2021/05/25 09:23:33;;;;;;;4.53;2.10;;;;;;;27.30;42.19;100335.38;5124132;28;20035;-70
2021/05/25 09:28:29;;;;;;;5.80;2.10;;;;;;;27.68;39.56;100322.66;5130531;27;20042;-71
2021/05/25 09:30:55;;;;;;;5.57;2.10;;;;;;;27.88;39.32;100327.44;5126335;27;20325;-70
2021/05/25 09:33:21;;;;;;;4.63;2.00;;;;;;;27.21;40.53;100326.06;5116067;27;20023;-70
2021/05/25 09:35:49;;;;;;;9.68;2.10;;;;;;;27.58;39.67;100308.97;5132788;27;20042;-70
2021/05/25 09:38:40;;;;;;;5.80;1.95;;;;;;;28.05;39.98;100317.19;5130291;27;20099;-70
2021/05/25 09:41:06;;;;;;;3.72;2.30;;;;;;;27.18;41.24;100312.16;5129485;27;20054;-70
2021/05/25 09:43:33;;;;;;;7.40;1.85;;;;;;;27.16;42.32;100300.72;5128368;27;20019;-70
2021/05/25 09:46:09;;;;;;;8.43;1.83;;;;;;;27.58;40.88;100306.25;5128492;27;20035;-70
2021/05/25 09:48:55;;;;;;;6.15;2.10;;;;;;;27.45;40.73;100301.25;5128598;27;20336;-70
2021/05/25 09:51:28;;;;;;;4.80;2.35;;;;;;;27.01;41.16;100296.75;5108437;27;20566;-70
2021/05/25 09:53:55;;;;;;;3.05;1.95;;;;;;;26.89;42.12;100296.03;5108888;27;20090;-69
2021/05/25 09:56:32;;;;;;;4.78;1.83;;;;;;;27.15;40.17;100285.47;5103179;28;20202;-69
2021/05/25 09:59:00;;;;;;;6.05;1.92;;;;;;;27.33;39.86;100290.53;5108334;28;20091;-70
2021/05/25 10:01:37;;;;;;;6.15;2.20;;;;;;;27.64;39.71;100278.84;5111503;27;20427;-70
2021/05/25 10:04:13;;;;;;;3.78;2.33;;;;;;;27.50;39.72;100280.34;5108261;28;20022;-70
2021/05/25 10:06:40;;;;;;;7.97;2.10;;;;;;;27.32;41.03;100286.19;5122408;28;20039;-70
2021/05/25 10:09:07;;;;;;;7.53;2.25;;;;;;;26.88;41.42;100272.66;5116334;28;20034;-70
2021/05/25 10:11:34;;;;;;;7.03;2.25;;;;;;;27.15;41.17;100252.84;5115600;28;20043;-70
2021/05/25 10:14:00;;;;;;;4.38;2.20;;;;;;;26.84;42.41;100265.28;5111146;27;20036;-70
2021/05/25 10:16:29;;;;;;;2.20;1.75;;;;;;;27.22;41.01;100265.16;5112951;27;20551;-70
2021/05/25 10:19:25;;;;;;;5.88;2.55;;;;;;;26.34;43.32;100260.94;5108832;28;20039;-70
2021/05/25 10:21:52;;;;;;;6.32;1.95;;;;;;;26.43;42.86;100259.41;5107245;27;20032;-70
2021/05/25 10:24:17;;;;;;;4.13;2.40;;;;;;;26.51;42.55;100248.09;5103395;28;20202;-70
2021/05/25 10:26:44;;;;;;;4.10;1.90;;;;;;;26.55;42.23;100251.94;5114532;27;20039;-70
2021/05/25 10:29:10;;;;;;;3.05;2.20;;;;;;;26.79;43.05;100248.94;5110259;28;20343;-70
2021/05/25 10:31:43;;;;;;;3.70;2.10;;;;;;;26.90;43.46;100242.50;5109747;28;20032;-70
2021/05/25 10:34:11;;;;;;;4.28;2.08;;;;;;;26.76;43.67;100238.56;5113489;28;20094;-70
2021/05/25 10:36:53;;;;;;;5.70;2.05;;;;;;;26.72;43.05;100235.56;5112592;28;20060;-70
2021/05/25 10:39:28;;;;;;;5.72;2.45;;;;;;;26.61;43.85;100242.78;5114777;27;20040;-70
2021/05/25 10:42:19;;;;;;;3.45;2.20;;;;;;;26.74;43.57;100238.81;5110255;28;20023;-70
2021/05/25 10:44:46;;;;;;;5.05;2.08;;;;;;;27.16;41.65;100219.97;5112031;28;20020;-70
2021/05/25 10:47:25;;;;;;;3.78;1.98;;;;;;;27.28;41.69;100223.34;5111196;27;20574;-70
2021/05/25 10:50:13;;;;;;;2.55;1.90;;;;;;;27.22;41.38;100224.38;5114879;27;20229;-70
2021/05/25 10:52:40;;;;;;;6.18;2.40;;;;;;;26.57;43.45;100217.19;5105334;28;20024;-70
2021/05/25 10:55:07;;;;;;;5.03;2.40;;;;;;;26.46;45.31;100195.63;5109145;28;20024;-70
2021/05/25 10:57:40;;;;;;;6.50;2.00;;;;;;;26.58;45.83;100223.44;5095100;28;20027;-71
2021/05/25 11:00:32;;;;;;;5.45;2.60;;;;;;;26.52;44.51;100214.44;5113118;28;20035;-71
2021/05/25 11:03:03;;;;;;;7.22;2.35;;;;;;;26.31;44.52;100220.69;5097948;28;20086;-71
2021/05/25 11:05:34;;;;;;;4.85;2.30;;;;;;;26.95;44.36;100213.50;5116646;28;20299;-71
2021/05/25 11:08:12;;;;;;;3.33;2.42;;;;;;;27.02;43.36;100213.31;5103193;28;20239;-71
2021/05/25 11:10:42;;;;;;;2.92;2.20;;;;;;;27.05;44.17;100212.81;5120017;28;20067;-71
2021/05/25 11:13:17;;;;;;;5.00;2.40;;;;;;;27.12;42.72;100215.31;5122815;28;20095;-71
2021/05/25 11:16:14;;;;;;;7.53;2.40;;;;;;;26.90;43.43;100215.34;5120572;28;20031;-71
2021/05/25 11:18:59;;;;;;;4.95;2.33;;;;;;;26.59;44.08;100200.66;5131736;27;20252;-71
2021/05/25 11:24:33;;;;;;;4.55;2.45;;;;;;;26.50;45.21;100203.00;5126434;27;20027;-71
2021/05/25 11:27:14;;;;;;;8.65;2.65;;;;;;;26.55;45.60;100202.22;5108019;28;20259;-71
2021/05/25 11:30:08;;;;;;;8.77;2.45;;;;;;;26.95;44.85;100194.47;5126204;28;20039;-71
2021/05/25 11:32:45;;;;;;;;;;;;;;;26.74;44.60;100200.78;5132411;27;20029;-71
2021/05/25 11:35:13;;;;;;;8.40;2.63;;;;;;;26.84;44.25;100190.03;5126948;27;19944;-71
2021/05/25 11:37:53;;;;;;;3.28;2.30;;;;;;;26.40;45.82;100197.47;5107869;28;20034;-71
2021/05/25 11:40:24;;;;;;;3.60;2.40;;;;;;;26.42;45.05;100180.91;5107918;28;20020;-71
2021/05/25 11:42:50;;;;;;;5.75;2.28;;;;;;;26.98;43.70;100193.16;5102121;28;20023;-71
2021/05/25 11:45:18;;;;;;;5.53;2.78;;;;;;;27.04;43.36;100184.78;5133256;27;20035;-71
2021/05/25 11:47:44;;;;;;;5.07;2.40;;;;;;;27.14;44.09;100189.53;5133432;27;20039;-71
2021/05/25 11:50:11;;;;;;;4.60;2.78;;;;;;;26.86;44.15;100195.19;5127693;27;20258;-71
2021/05/25 11:52:39;;;;;;;6.53;2.60;;;;;;;26.96;43.79;100206.16;5125690;28;20023;-71